Espace membre
Imprimable
La Gileppe, 09-11/08/2019, BEL - La Gileppe Trophy Orbea
Liste des rapports > Triathlon découverte - Classement
Recherche: Page: [1]
406 Entrées
 
Les réclamations ne sont plus acceptées, les résultats sont considérés comme définitifs.
Catégorie
PosNrNomAgeIOCEquipeRéelTempsTkmMoy.RangNom
1.5374STITZINGEN Patrick38BEL1:06:3122:10:19 0.051h24
2.5487LEROY Victor24BEL1:06:5122:16:57 0.042h24
3.5303PASSELECQ Charles-Antoine31BEL1:07:5922:39:36 0.043h24
4.5099THYS Arnaud18BELTRIATHLON ARDEN1:08:0522:41:34 0.041hu23
5.5082EUSSEN Samuel20BELTDCH1:08:0722:42:01 0.042hu23
6.5027VAN NIEUWENHUYSE Jesse36BELGRAVELINES TRIA1:08:1022:43:20 0.044h24
7.5060PIERRARD Rémy19BELPMX1:08:1122:43:31 0.043hu23
8.5050PARISOT Aymeric17FRAMÉTROPOLE GRAND1:09:3623:11:50 0.041h18
9.5224GALLE Tom24BEL1:09:4923:16:13 0.045h24
10.5001SCHOONVLIET Stein18BEL3PT1:09:5323:17:33 0.044hu23
11.5507DEFRAITEUR Romain22BEL1:10:1623:25:02 0.045hu23
12.5055CUVELIER Sander29BELMTC1:10:4023:33:19 0.046h24
13.5117MONTULET Rodrigue25BELTTF1:10:4323:34:01 0.047h24
14.5116HAVARD Thomas19BELTTF1:12:0924:02:57 0.046hu23
15.5155BARIGAND Cyril27BELTCDM1:12:2224:07:18 0.048h24
16.5196DELVAUX Guillaume23BEL1:12:4324:14:18 0.047hu23
17.5254KEMPENEERS Cedric40BEL1:12:4924:16:14 0.041h40
18.5238HANF Alain38BEL1:13:0724:22:01 0.049h24
19.5105DUJARDIN Benoît24BELTRIGT1:14:0024:39:43 0.0410h24
20.5266LEJACQUES Thibait36BEL1:14:4224:53:57 0.0411h24
21.5210ESTE Romain32BEL1:14:5424:57:42 0.0412h24
22.5278MAHIEUX Xavier44BEL1:15:1225:03:43 0.042h40
23.5109FHAINAUT Inès26BELTRIGT1:15:1825:05:45 0.041d24
24.5127LAURENT Hugo18BELWATT'S1:15:1825:05:53 0.048hu23
25.5215FESLER Mathieu31BEL1:15:5025:16:32 0.0413h24
26.5174CORNILLY Maxime24BEL1:16:0625:21:49 0.0414h24
27.5340STEVENS Philippe26BEL1:16:0725:22:13 0.0415h24
28.5126DEPOERS Sébastien45FRAVALENCIENNES TR1:16:0825:22:37 0.043h40
29.5005RUTGERS Luuc33NEDAV TRIATHLON1:16:1725:25:25 0.0416h24
30.5058GORGEMANS Laurent49BELPMX1:16:1825:25:56 0.044h40
31.5194DELITTE Maxime28BEL1:16:2625:28:26 0.0417h24
32.5329ROYEN Julie21BEL1:16:3725:32:20 0.049hu23
33.5080HANQUET Hugp17BELTCBM1:16:4125:33:34 0.042h18
34.5059GORGEMANS Thomas17BELPMX1:16:5225:37:13 0.043h18
35.5497GEERTS Jean LucBEL1:17:0125:40:02 0.041xxx
36.5079GUCKEL Thibaut17BELTCBM1:17:4025:53:16 0.044h18
37.5262LECOQ Florent19BEL1:17:4325:54:05 0.0410hu23
38.5220FRANKINET Arthur16BEL1:17:4925:56:13 0.045h18
39.5245HOARAU Etienne24FRA1:17:5125:56:49 0.0418h24
40.5057MORTIER Pierre51BELOXYGENE TRIATHL1:17:5625:58:21 0.041h50
41.5192DEL FORNO David30BEL1:18:1126:03:36 0.0419h24
42.5124DEPOERS Baptiste21FRAVALENCIENNES TR1:18:1326:04:10 0.0411hu23
43.5294NAZHI Nizar35BEL1:18:2426:07:53 0.0420h24
44.5491HUGO Markus24BEL1:19:2126:26:51 0.0421h24
45.5364WUILLAUME Laurent30BEL1:19:3826:32:21 0.0422h24
46.5306PELLISIER Vincent30BEL1:19:4726:35:34 0.0423h24
47.5067SNEESSENS Michaël31BELRUN ATTITUDE1:20:1426:44:22 0.0424h24
48.5103BOSTEN Manfred49BELTRIATHLON TEAM 1:20:2326:47:22 0.045h40
49.5034SCHUNCK Marc45BELHC EYNATTEN-RAE1:20:3426:51:17 0.046h40
50.5226GASPARD Grosjean31BEL1:20:3726:52:12 0.0425h24
51.5346TOUWAIDE Gaspard28BEL1:20:3926:52:52 0.0426h24
52.5193DELITTE Maxence21BEL1:20:4826:55:54 0.0412hu23
53.5514BRUWIER Jean Paul48BEL1:21:0127:00:09 0.047h40
54.5277MAGOCHE Mathieu27BEL1:21:0727:02:16 0.0427h24
55.5203DEWAEL Thibaut31BEL1:21:0827:02:38 0.0428h24
56.5185DEFLANDRE Gilles27BEL1:21:2127:06:43 0.0429h24
57.5528ROELANTS Romain27BEL1:21:3227:10:40 0.0430h24
58.5264LEFEBVRE Ludwig29BEL1:21:3527:11:38 0.0431h24
59.5293NACHI Ghassen25BEL1:21:4527:14:49 0.0432h24
60.5204DEWEZ Erwan23BEL1:21:4927:16:17 0.0413hu23
61.5068DETOURNAY Stéphan41BELSBT1:21:5227:17:03 0.048h40
62.5244HERNIK Rafael45BEL1:21:5827:19:06 0.049h40
63.5165CHOUDNA Magid26BEL1:22:0027:19:46 0.0433h24
64.5268LEMAIRE Julien38BEL1:22:0327:20:44 0.0434h24
65.5505WEVELING Olivier46BEL1:22:1027:23:07 0.0410h40
66.5175COUNSON Maxime27BEL1:22:1427:24:28 0.0435h24
67.5181DAOUST Jérémie35BEL1:22:1427:24:34 0.0436h24
68.5024KUBITZKI Walter64GEREUPEN1:22:1627:25:05 0.041h60
69.5146BENIT François32BEL1:22:1727:25:32 0.0437h24
70.5287MATHY Pierre-André29BEL1:22:1927:26:19 0.0438h24
71.5524KERZMANN Sebastien36BEL1:22:3027:29:44 0.0439h24
72.5527ANDRE Cedric33BEL1:22:3127:30:05 0.0440h24
73.5125DEPOERS Eloi18FRAVALENCIENNES TR1:22:3427:31:14 0.0414hu23
74.5040DRUART Maxime36BELJODOINGE ENDURA1:22:4627:35:09 0.0441h24
75.5348VANBUSSEL Peter37BEL1:23:3627:51:59 0.0442h24
76.5069FGEORGE Christine46BELSBT1:23:5127:56:56 0.041d40
77.5317RASSART Jorick25BEL1:24:0528:01:36 0.0443h24
78.5290MONTULET Arnaud35BEL1:24:1228:03:56 0.0444h24
79.5094HENRARD Arthur17BELTNT1:24:1728:05:35 0.046h18
80.5108GOEMAERE Bart44BELTRIGT1:24:2428:07:43 0.0411h40
81.5373MERCY AlainBEL1:24:2628:08:28 0.042xxx
82.5101GOEDERS Charles Etienne41BELTRIATHLON TEAM 1:24:2928:09:30 0.0412h40
83.5485RENDERS André40BELKAPEL TRAILER T1:24:2928:09:34 0.0413h40
84.5097HERBINT Christophe43BELTRI4US1:24:3728:12:10 0.0414h40
85.5367YZERBYT Simon29BEL1:24:5228:17:02 0.0445h24
86.5151BIEDER Jordan32FRA1:25:0328:20:48 0.0446h24
87.5018WEICKMANS David36BELEGRT1:25:0528:21:33 0.0447h24
88.5500DEGEY Noah16BEL1:25:1128:23:25 0.047h18
89.5098MICHAUX Nathan21BELTRIATHLON ARDEN1:25:1428:24:26 0.0415hu23
90.5111FABRY Cedric36BELTRITRARAID1:25:2028:26:28 0.0448h24
91.5537VAN PETEGEM Pierre Alexandre30BEL1:25:2928:29:33 0.0449h24
92.5092CLAES Aurelien32BELTNT1:25:3428:31:20 0.0450h24
93.5296NICOLAS Jose63BEL1:25:4628:35:10 0.032h60
94.5540LEONARD Cedric29BEL1:25:5128:36:50 0.0351h24
95.5239HARDY Bruno46BEL1:25:5828:39:10 0.0315h40
96.5234HABETS Jonathan28BEL1:26:0428:41:15 0.0352h24
97.5156BROSET Olivier52BEL1:26:0428:41:17 0.032h50
98.5066FVAN DRIESSCHE Fanny28BELRCBT1:26:1528:45:00 0.032d24
99.5326RORIVE Nicolas23BEL1:26:1628:45:12 0.0316hu23
100.5327ROSART Thomas31BEL1:26:2528:48:08 0.0353h24
101.5484WEBER Laurent32BELTTF1:26:3628:51:51 0.0354h24
102.5318RASSART Marc52BEL1:26:4128:53:35 0.033h50
103.5315PLUGGE Berend39NED1:26:4428:54:21 0.0355h24
104.5128CLESSE Roger50LUXX3M TRIATHLON M1:26:4528:54:58 0.034h50
105.5313PIRARD Laurent24BEL1:26:5728:58:43 0.0356h24
106.5498MARQUET Antoine17BEL1:26:5828:59:20 0.038h18
107.5021DE POURCQ Kevin22BELETZA1:26:5928:59:40 0.0317hu23
108.5183DASNOY-SUMELL Tanguy31BEL1:27:0229:00:29 0.0357h24
109.5368FZIANT Stephanie32BEL1:27:0529:01:25 0.033d24
110.5541ALLARD Pierre Emile29BEL1:27:2129:06:51 0.0358h24
111.5022HUVAERE Eddy52BELETZA1:27:2229:07:11 0.035h50
112.5121HOLOFFE Thierry60BELUTT1:27:3029:09:47 0.033h60
113.5084GODFROID Benjamin30BELTEAM POSITIVE A1:27:3229:10:23 0.0359h24
114.5351VAN EECKHAUTE Jérémy30BEL1:27:3229:10:27 0.0360h24
115.5029COLSON Marc48BELGROSRACHITYCH1:27:3929:12:47 0.0316h40
116.5207DUBOIS Eric46BEL1:27:4229:13:45 0.0317h40
117.5141BARTHÉLEMY Corentin26BEL1:27:4229:14:00 0.0361h24
118.5359WEEHUIZEN Maarten30NED1:27:4429:14:35 0.0362h24
119.5276FMACQUART Laurane28FRA1:27:5029:16:34 0.034d24
120.5083MONFORT Jean-Marc52BELTEAM 2 RACE1:27:5629:18:22 0.036h50
121.5375SCHOONBROODT Gaetan35BEL1:28:0329:20:47 0.0363h24
122.5122FVAN LAEKEN Lauryne16BELUTT1:28:4929:36:15 0.031d18
123.5008PIRARD Nicolas35BELBATSTH1:29:0329:40:52 0.0364h24
124.5258LADANG Manuel27BEL1:29:0529:41:24 0.0365h24
125.5501VERMEIRE Martin16BEL1:29:1529:44:55 0.039h18
126.5200DERWA Steve24BEL1:29:3829:52:32 0.0366h24
127.5495FEVRARD Emeline17BEL1:29:3829:52:36 0.032d18
128.5228GILON Diego26BEL1:29:4329:54:07 0.0367h24
129.5523DUMOULIN Antoine33BEL1:29:4929:56:13 0.0368h24
130.5158BÜNGELER Herbert62GER1:29:5429:57:47 0.034h60
131.5273LIÉGEOIS Marc-Etienne26BEL1:30:0230:00:37 0.0369h24
132.5212FELDGRILL Gery38BEL1:30:0230:00:40 0.0370h24
133.5154BRAET Alexis25BEL1:30:0630:01:56 0.0371h24
134.5345THEVISSEN Bruno45BEL1:30:0830:02:29 0.0318h40
135.5214FERRY Eloi27FRA1:30:0830:02:29 0.0372h24
136.5300FORBAN Sarah30BEL1:30:0930:02:50 0.035d24
137.5144BECKER Julien21BEL1:30:1330:04:07 0.0318hu23
138.5049ZIMMER Benoit33BELJODOINGE ENDURA1:30:1730:05:35 0.0373h24
139.5201DESIMPEL Nicolas26BEL1:30:2530:08:02 0.0374h24
140.5052MULLER Pierre29BELMICH MICH1:30:2730:08:43 0.0375h24
141.5113MORENO Christophe46BELTTB1:30:2930:09:31 0.0319h40
142.5330RUWET Nicolas21BEL1:30:3830:12:39 0.0319hu23
143.5119DROUVEN Valentin34BELURBAN TRI1:30:4530:14:41 0.0376h24
144.5521FHONIN Sophie30BEL1:30:5030:16:28 0.036d24
145.5496CHEVALIER Alexandre34BEL1:30:5130:17:00 0.0377h24
146.5004VERMEULEN David45BELATCC1:31:0930:22:52 0.0320h40
147.5263LECRON Yves50BEL1:31:1730:25:23 0.037h50
148.5162FCAMPRUBÍ TRIAS Ònia33ESP1:31:2530:28:03 0.037d24
149.5096VANSTEENLAND Pascal57BELTPA1:31:2630:28:30 0.038h50
150.5081VANHAELEN Jonathan39BELTCBM1:31:3030:29:53 0.0378h24
151.5026VAN DE GAER William37BELGOLIKEHELL1:31:3730:32:15 0.0379h24
152.5516BECKS Christophe41BEL1:31:5130:36:57 0.0321h40
153.5370LEMPEREUR Jean-Luc62BELTURBO1:31:5330:37:35 0.035h60
154.5526DETHIER Thomas32BEL1:31:5630:38:34 0.0380h24
155.5513THYS Frederick43BEL1:32:0030:39:46 0.0322h40
156.5078LALLEMANT Alain49BELTCA ANDENNE1:32:0230:40:22 0.0323h40
157.5216FINET Jean-Paul54BEL1:32:1330:44:04 0.039h50
158.5102LEJEUNE François20BELTRIATHLON TEAM 1:32:1330:44:14 0.0320hu23
159.5531FMONTOJSY Louise26BEL1:32:1430:44:30 0.038d24
160.5197DE MONTLIVAULT Augustin28BEL1:32:1530:44:55 0.0381h24
161.5486DIEPART Jean-Christophe49BEL1:32:1930:46:16 0.0324h40
162.5494FJERUSALEM Ann34BEL1:32:2630:48:39 0.039d24
163.5522DEMAZY Adrian33BEL1:32:2830:49:18 0.0382h24
164.5511FTHONNARD Séverine36BEL1:32:3230:50:38 0.0310d24
165.5129BERTRAND Romain30BEL1:32:3330:50:46 0.0383h24
166.5161FCAMPIONE Juliette26BEL1:32:4230:53:42 0.0311d24
167.5357WALHIN Nicolas28BEL1:32:4330:54:13 0.0384h24
168.5012MOREAU Rene60BELBIN1:32:5030:56:34 0.036h60
169.5506ZUYDERHOFF Pierre34BEL1:32:5730:58:57 0.0385h24
170.5284MARTIN François29BEL1:33:0731:02:04 0.0386h24
171.5088BOSERET Julien30BELTHREE SPORTS, F1:33:0831:02:26 0.0387h24
172.5023MOLLET Sébastien30BELETZA1:33:1331:04:03 0.0388h24
173.5123VELIKANOV Mikhail50RUSUTT1:33:1931:06:10 0.0310h50
174.5269LEROY Amaury36BEL1:33:2131:06:52 0.0389h24
175.5503HENRARD Antoine17BEL1:33:3131:10:15 0.0310h18
176.5504DEVILLE Yves52BEL1:33:4231:13:45 0.0311h50
177.5160CAMELIA Thibaut34BEL1:33:4331:14:12 0.0390h24
178.5132AGUZZI Rene55BEL1:33:4731:15:32 0.0312h50
179.5184DASSARGUES Jean-Loup55BEL1:33:4831:15:44 0.0313h50
180.5087HENDRICKX Esteban29BELTHREE SPORTS, F1:33:5631:18:26 0.0391h24
181.5230GRAINDORGE Quentin28BEL1:34:0531:21:38 0.0392h24
182.5035MABILLE Joël52BELJCHSH1:34:0931:23:00 0.0314h50
183.5286MATHY Julien32BEL1:34:1031:23:12 0.0393h24
184.5353VANHOOF Kevin26BEL1:34:1131:23:29 0.0394h24
185.5148BÉRO Evan16BEL1:34:2531:28:16 0.0311h18
186.5014FLELEU Magali38BELCCSTC1:34:2731:28:47 0.0312d24
187.5118FSERVAIS Nathalie53BELTTF1:34:2931:29:29 0.031d50
188.5376CEUNET Florian26BEL1:34:3131:30:16 0.0395h24
189.5107FFRÉDÉRIC Tiphène31BELTRIGT1:34:3331:30:43 0.0313d24
190.5525CLEREBOUT Benjamin32BEL1:34:3731:32:11 0.0396h24
191.5038BOUVIER-GAZ Yohann33FRAJODOINGE ENDURA1:34:3731:32:13 0.0397h24
192.5322RIGA Ivan47BEL1:34:4331:34:05 0.0325h40
193.5307PESTIAUX Xavier25BEL1:35:0231:40:35 0.0398h24
194.5492FVERVIER Juliane27BEL1:35:0331:40:53 0.0314d24
195.5257KRUYTS Keo35BEL1:35:1431:44:22 0.0399h24
196.5170COLOT Christian42BEL1:35:1731:45:27 0.0326h40
197.5233GYPENS Julien30BEL1:35:2431:47:50 0.03100h24
198.5110ADAM Guillaume22BELTRILGE1:35:3831:52:31 0.0321hu23
199.5354VANHOOF Stefan57BEL1:35:4531:54:48 0.0315h50
200.5314PLAPP Frédéric51FRA1:35:5031:56:35 0.0316h50
201.5243HERMESSE Rémy45BEL1:35:5231:57:09 0.0327h40
202.5297NOOTENS Romain28BEL1:35:5531:58:02 0.03101h24
203.5280MARICHAL Gaëtan16BEL1:35:5631:58:23 0.0312h18
204.5281MARICHAL Olivier48BEL1:36:0031:59:48 0.0328h40
205.5093FDIERGE Laurine34BELTNT1:36:0732:02:05 0.0315d24
206.5308FPETERS Annick46BEL1:36:1132:03:26 0.032d40
207.5289MERTENS Augustin31BEL1:36:2832:09:10 0.03102h24
208.5285MASSART Romain22BEL1:36:3132:10:16 0.0322hu23
209.5145BEGHIN Jeremie25BEL1:36:4032:13:02 0.03103h24
210.5163CASPAR Patrick50BEL1:36:5432:17:51 0.0317h50
211.5323ROLOUX Ludovic25BEL1:36:5532:18:18 0.03104h24
212.5321RICHELLE Arnaud33BEL1:36:5632:18:34 0.03105h24
213.5019FVANHUYSE Kathleen32BELENDURANCE TEAM 1:37:0332:20:48 0.0316d24
214.5517DEGIEVELEEN Steven34BEL1:37:0332:20:59 0.03106h24
215.5515PIERSON Cyril26BEL1:37:2132:26:46 0.03107h24
216.5169COLLINS Michel50BEL1:37:4632:35:04 0.0318h50
217.5539VIGNY Laurent53BEL1:37:4932:36:16 0.0319h50
218.5007FDETROZ Clarisse20BELBATSTH1:37:5232:37:06 0.031du23
219.5100FVANLAAR Chris37BELSPARTACUS1:37:5532:38:05 0.0317d24
220.5311FPINCKAERS Christel27BEL1:37:5632:38:21 0.0318d24
221.5253KALEK Fabien29FRA1:38:2132:46:41 0.03108h24
222.5295NICOLAS Gauthiee28BEL1:38:3032:49:54 0.03109h24
223.5231FGUILMOT Audrey25BEL1:38:4832:55:42 0.0319d24
224.5337SIMON Julien39BEL1:38:5632:58:23 0.03110h24
225.5279FMARCHESE Stephanie31BEL1:38:5932:59:40 0.0320d24
226.5509SEPTON Philippe53BEL1:39:0032:59:55 0.0320h50
227.5519MASSON Briene20BEL1:39:0533:01:40 0.0323hu23
228.5213FELDGRILL Steve34BEL1:39:0833:02:30 0.03111h24
229.5252FJEMELKA Cathy31BEL1:39:0933:02:56 0.0321d24
230.5195DELVAUX François40BEL1:39:1933:06:19 0.0329h40
231.5115FHAVARD Marie18BELTTF1:39:2833:09:16 0.033d18
232.5167CLOSE-LECOCQ Benoit32BEL1:39:3033:09:51 0.03112h24
233.5298FNOYON Mélanie29BEL1:39:4533:14:47 0.0322d24
234.5237HALMES Michel30BEL1:39:5433:17:41 0.03113h24
235.5490FLAHAYE Marie34BEL1:40:0033:19:45 0.0323d24
236.5090STEPHANY Francois33BELTHREE SPORTS, F1:40:2033:26:28 0.03114h24
237.5089CARLIER Romain31BELTHREE SPORTS, F1:40:2133:26:41 0.03115h24
238.5223GALDEROUX Julien31BEL1:40:2433:27:49 0.03116h24
239.5336SIMON Eric46BEL1:40:3733:32:18 0.0330h40
240.5274FLORCÉ Aurélie34BEL1:40:4633:35:13 0.0324d24
241.5166CLAISE Benoit49BEL1:40:5133:37:00 0.0331h40
242.5077FLAURENT Manon23BELTCA1:40:5433:37:42 0.032du23
243.5131FADDAHRI Lila22BEL1:41:0033:39:48 0.033du23
244.5352VAN HESPEN Benoit51BEL1:41:0333:40:59 0.0321h50
245.5265LEFÈVRE Pierre-Olivier37BEL1:41:0733:42:15 0.03117h24
246.5209FEHMANN Wilma31LUX1:41:1033:43:03 0.0325d24
247.5283MARTIN Didier58BEL1:41:1533:44:58 0.0322h50
248.5198DENIS Francois-Xavier52BEL1:41:1833:45:59 0.0323h50
249.5003BOSERET Sébastien42BELATCC1:41:2533:48:18 0.0332h40
250.5048FTIZI Nora43FRAJODOINGE ENDURA1:41:2733:48:44 0.033d40
251.5249FJACOBS Béa47BEL1:41:3733:52:11 0.034d40
252.5086PROOT Wim31BELTEAM VELOMAN1:42:0134:00:13 0.03118h24
253.5147BERGENHUIZEN Thibault18BEL1:42:0734:02:12 0.0324hu23
254.5177CROCHART Adrien37FRA1:42:1434:04:23 0.03119h24
255.5240HARDY Julien27BEL1:42:2234:07:07 0.03120h24
256.5533FGUILLARD Cécile28BEL1:42:2734:08:52 0.0326d24
257.5241HAVELANGE Martin21BEL1:42:2934:09:28 0.0325hu23
258.5301FOZER Méryl31BEL1:42:3034:09:59 0.0327d24
259.5489PELTIER Willy47BEL1:42:4134:13:29 0.0333h40
260.5020YUMUSAK Alexandre23BELETC1:42:4734:15:26 0.0326hu23
261.5288FMEENS Mélanie23BEL1:42:5934:19:32 0.034du23
262.5271LEVILLEZ Victor24BEL1:42:5934:19:34 0.03121h24
263.5150BEUDIN Audric25BEL1:43:0434:21:09 0.03122h24
264.5339FSOHET Catherine44BEL1:43:1934:26:13 0.035d40
265.5366YPERMAN Michael33BEL1:43:3034:29:45 0.03123h24
266.5142BARTHÉLEMY François28BEL1:43:3134:30:10 0.03124h24
267.5320RENARD Simon27BEL1:43:3134:30:11 0.03125h24
268.5342TANZARELLA Giuseppe32ITA1:43:3234:30:22 0.03126h24
269.5302FPASIN Martina31ITA1:43:3234:30:27 0.0328d24
270.5137APTEKERS Olivier47BEL1:43:3934:32:53 0.0334h40
271.5191FDELCOUR Ariane22BEL1:43:4134:33:30 0.035du23
272.5133ALFIERI Jordan25BEL1:43:4334:34:14 0.03127h24
273.5179DAME Adrian32BEL1:43:4534:34:58 0.03128h24
274.5054FTILMAN Céline27BELMP STUDIO1:43:5634:38:25 0.0329d24
275.5334FSCIUS Clotilde25BEL1:43:5834:39:10 0.0330d24
276.5272FLIBERT Charlotte31BEL1:44:1134:43:30 0.0331d24
277.5282MARSILY Thomas31BEL1:44:2334:47:30 0.03129h24
278.5075FCOOREMANS Veronique50BELTCA1:44:2434:47:43 0.032d50
279.5361WILLEMS Oilivier51BEL1:44:2634:48:37 0.0324h50
280.5270LEROY Marc62BEL1:44:2734:48:51 0.037h60
281.5002FRYCKAERT Coraline28BELANDENNE1:44:2834:49:04 0.0332d24
282.5304PAUL Laurent45BEL1:44:4134:53:24 0.0335h40
283.5053NEUKERMANS David30BELMICH MICH1:44:4534:54:52 0.03130h24
284.5381BLECKER Geoffrey28BEL1:44:5334:57:31 0.03131h24
285.5152BLANCO ALVAREZ Sylvain29BEL1:45:1035:03:02 0.03132h24
286.5299OLIVARES Juan58ESP1:45:1135:03:35 0.0325h50
287.5134FANDRÉ Marylène32BEL1:45:2535:08:18 0.0333d24
288.5041FEVERARD Anne-Catherine41BELJODOINGE ENDURA1:45:2735:08:59 0.036d40
289.5063FGHYZELINGS Manon20BELQ3T1:45:3835:12:35 0.036du23
290.5331RYCKAERT Charles23BEL1:45:4135:13:27 0.0327hu23
291.5199DÉOM Mathieu32BEL1:45:4535:14:45 0.03133h24
292.5229GONTIER-VERSAILLES Florian27BEL1:45:4835:15:46 0.03134h24
293.5493FLECLERRCQ Victoria28BEL1:45:5335:17:28 0.0334d24
294.5267FLEJOLY Céline22BEL1:45:5335:17:31 0.037du23
295.5017RENARD Jordan26BELE.T.C1:45:5535:18:07 0.03135h24
296.5341FSTOBBE Dana22NED1:45:5835:19:18 0.038du23
297.5120COMITO Vincent40BELUS LIEGE1:46:0335:20:59 0.0336h40
298.5157FBRYGO Axelle23BEL1:46:1435:24:24 0.039du23
299.5344FTESSARO Valérie49BEL1:46:1535:24:44 0.037d40
300.5010MAURY Anthony36FRABIANCHI1:46:2435:27:56 0.03136h24
301.5168FCOIGNÉ Julie41BEL1:46:2935:29:24 0.038d40
302.5292MUNOZ FUENTES Demian36BEL1:46:3235:30:39 0.03137h24
303.5324ROMPEN Arnaud32BEL1:46:4935:36:04 0.03138h24
304.5512DUGAUQUIER Marc41BEL1:47:0035:39:55 0.0337h40
305.5335SELVAIS Nicolas27BEL1:47:0135:40:07 0.03139h24
306.5222FGALANTE Laura38BEL1:47:0235:40:33 0.0335d24
307.5056FVERZELE Ludwine36BELOTC1:47:0735:42:01 0.0336d24
308.5532FDEPIESSE Laura22BEL1:47:0835:42:40 0.0310du23
309.5064FWILLIAME Maud34BELQ3T1:47:1235:43:45 0.0337d24
310.5235FHABRAKEN Ine37BEL1:47:1735:45:22 0.0338d24
311.5372KREUS Artur62BEL1:47:2935:49:33 0.038h60
312.5042FGERARD Eve29BELJODOINGE ENDURA1:47:3635:51:46 0.0339d24
313.5488PELTIER Frederic43BEL1:47:4535:54:59 0.0338h40
314.5031DUCHENE Pierre-Yves52BELGTC1:47:5235:57:17 0.0326h50
315.5347TURIN Christophe35BEL1:48:0236:00:39 0.03140h24
316.5312PIOTTO Arnaud43FRA1:48:0936:02:41 0.0339h40
317.5032FJALET Marie43BELGTC1:48:1336:04:02 0.039d40
318.5255FKESTEMONT Morgane29BEL1:48:1736:05:30 0.0340d24
319.5259LAMY Pierre25BEL1:48:2036:06:31 0.03141h24
320.5030DESART Yves52BELGTC1:48:2636:08:34 0.0327h50
321.5076FESCARMELLE Alexandra45BELTCA1:48:3636:12:00 0.0310d40
322.5153FBOECKX Eva36BEL1:48:4336:14:18 0.0341d24
323.5171COLSON Thomas38BEL1:49:0236:20:34 0.03142h24
324.5073FLOURTIE Bénédicte29BELSHE CAN TRI1:49:1036:23:11 0.0342d24
325.5178CUCHE Melvin28BEL1:49:1736:25:24 0.03143h24
326.5275FLUCATELLI Jessica36BEL1:49:2236:27:12 0.0343d24
327.5261LATOUR Aymeric16BEL1:49:2436:27:42 0.0313h18
328.5208FDU MORTIER Adeline29BEL1:49:3536:31:21 0.0344d24
329.5033FPERROT Geraldine26BELGTC1:49:3836:32:24 0.0345d24
330.5015FMORTIER Lucie14BELCCSTC1:49:4136:33:32 0.034d18
331.5310FPIERQUIN Gwenaelle33BEL1:49:4636:35:03 0.0346d24
332.5508FLEGROS Mylène47BEL1:49:4836:35:57 0.0311d40
333.5227GAUTIER Bertrand32FRA1:49:5236:37:18 0.03144h24
334.5482FHERMAN Sylviane55BEL1:49:5836:39:06 0.033d50
335.5309FPÉTERS Marie-Julie29BEL1:50:1736:45:32 0.0347d24
336.5332SCHRYMECKER Julien28BELFNO6GILEPPE20191:50:3236:50:33 0.03145h24
337.5236FHAGELSTEIN Virginie26BEL1:50:3236:50:37 0.0348d24
338.5028CLAISE Julien21BELGROSRACHITYCH1:50:3636:51:45 0.0328hu23
339.5242FHENKENS Florence23BEL1:50:4736:55:38 0.0311du23
340.5291FMOREAU Fanny27BEL1:50:5136:56:54 0.0349d24
341.5221FRUMIN Marc69FRA1:51:0437:01:13 0.039h60
342.5248IMBERT MichelFRA1:51:0437:01:15 0.033xxx
343.5074LEROY Serge68FRASVER1:51:1937:06:02 0.0310h60
344.5325FROOD Laetitia31BEL1:51:2537:08:13 0.0350d24
345.5072FJOYEUX Coline27BELSHE CAN TRI1:51:2537:08:17 0.0351d24
346.5159FBUXANT Karine46BEL1:52:0037:20:00 0.0312d40
347.5365YOANN Monfort33BEL1:52:0637:21:59 0.03146h24
348.5130ADAM Xavier34BEL1:52:0837:22:33 0.03147h24
349.5206FDRUMMEN Dorine26BEL1:52:1737:25:29 0.0352d24
350.5350FVAN DOREN Catherine45BEL1:52:2037:26:33 0.0313d40
351.5225FGARNIER Marie-Laetitia29BEL1:52:2937:29:23 0.0353d24
352.5333SCHWALL Damien39BEL1:52:3237:30:23 0.03148h24
353.5251FJADOT Marie37BEL1:52:3237:30:35 0.0354d24
354.5009FDEHOUX Audrey29BELBIANCHI1:52:5237:37:14 0.0355d24
355.5036FPAULUS Rolande61BELJCHSH1:52:5537:38:09 0.031d60
356.5085FPELLET Sylvie52BELTEAM POSITIVE A1:52:5737:38:56 0.034d50
357.5071FHEYNEN Evelyne35BELSHE CAN TRI1:52:5837:39:05 0.0356d24
358.5139BARBENCON Jérémy33BEL1:53:0437:41:19 0.03149h24
359.5520JOSWILBORTS 70BEL1:53:1837:45:54 0.0311h60
360.5338FSMETS Noemie23BEL1:53:2537:48:03 0.0312du23
361.5349VAN DER CRUYSSEN ThomasBEL1:54:5638:18:24 0.034xxx
362.5202DEVOS Pierre65BEL1:54:5838:19:05 0.0312h60
363.5328ROSSIUS Edwin47BEL1:55:2038:26:27 0.0340h40
364.5232GURPINAR Murat43TUR1:56:0638:41:55 0.0341h40
365.5355FVERHOYEN Perrine26BEL1:56:3138:50:03 0.0357d24
366.5061FVANHALLE Catherine49BELPMX1:57:1939:06:08 0.0314d40
367.5535FMILIS Anne Francoise50BEL1:58:2639:28:35 0.035d50
368.5149FBETHANCOURT Natalia42GTM1:58:3539:31:32 0.0315d40
369.5536FREYNDERS Anne Sophie35BEL1:59:1439:44:32 0.0358d24
370.5534FVOISIN Veronique43BEL1:59:2339:47:37 0.0316d40
371.5173FCOPPÉE Nathalie31BEL1:59:3439:51:14 0.0359d24
372.5358FWATERKEYN Gwennaëlle33BEL1:59:4039:53:03 0.0360d24
373.5011OLDANI Vincent37FRABIANCHI1:59:4439:54:25 0.03150h24
374.5382MONET Johan28BEL2:00:3240:10:23 0.02151h24
375.5260LAMY Sébastien20BEL2:01:3140:30:17 0.0229hu23
376.5135ANTOINE Deckers20BEL2:01:3740:32:15 0.0230hu23
377.5172COOPMANS Nicolas41BEL2:01:5140:36:52 0.0242h40
378.5369FMEURISSE Bernadette63BELTURBO2:03:2641:08:30 0.022d60
379.5070FBECKERS Thérèse59BELSHE CAN TRI2:05:5541:58:20 0.026d50
380.5188FDEJALLE Claire20BEL2:05:5841:59:05 0.0213du23
381.5046FPETIT Manon29BELJODOINGE ENDURA2:06:1242:03:47 0.0261d24
382.5319RATTINI Markus40AUT2:06:3242:10:33 0.0243h40
383.5164FCHEVAL Melanie47BEL2:06:3942:12:45 0.0217d40
384.5250FJADOT Isabelle34BEL2:06:5742:18:48 0.0262d24
385.5538FDESIMPEL Manon25BEL2:07:0242:20:39 0.0263d24
386.5518FSTILMANT Elodie30BEL2:07:0342:20:49 0.0264d24
387.5025HALLEUX Jean-Pierre48BELFNO6GILEPPE20192:08:1142:43:38 0.0244h40
388.5246FHONOREZ Isabelle45BEL2:08:2242:47:02 0.0218d40
389.5182FDARIMONT JocelyneBEL2:10:5743:38:42 0.025xxx
390.5065FLELIEVRE Marine38FRARCA TRIATHLON2:14:4544:54:54 0.0265d24
391.5190DE KOSTER Arnaud15BEL2:17:4145:53:33 0.0214h18
392.5187FDEJALLE Camille20BEL2:18:3146:10:03 0.0214du23
393.5013WUIDART Luc41BELCAP2SPORTS2:18:4046:13:04 0.0245h40
394.5205D'HENAU Florentin30BEL2:23:0947:42:56 0.02152h24
395.5138FBALTUS Viviane34BEL2:23:5047:56:22 0.0266d24
396.5189FORAZIETTI Laurence32BEL2:23:5047:56:30 0.0267d24
397.5360FWEISSHAUPT Charlotte34BEL2:23:5147:56:49 0.0268d24
DSQ5219FOURNEAU Emile27BEL42:38h24
DSQ5483HAVART Jérémie38BEL42:48h24
DNF5180DANTINE Alaric22BELhu23
DNF5316POULIN Marius34FRAh24
DNF5051FLAHAYE Maud30BELMICH MICH1:36:42d24
DNF5362FWILLEMS Stéphanie34BEL1:51:57d24
DNF5356FVISCONTI Véronique49BEL1:58:52d40
DNF5499FMAQUET Cecile47BEL4:51:36d40
DNF5510COLI Regis37BEL4:51:37h24
DNF: abandon; DSQ: disqualifié; Vitesse en km/h
Page: [1]